Time;durP1;ratioP1;P1;durP2;ratioP2;P2;SDS_P1;SDS_P2;PMS_P1;PMS_P2;Temp;Humidity;BMP_temperature;BMP_pressure;BME280_temperature;BME280_humidity;BME280_pressure;Samples;Min_cycle;Max_cycle;Signal;HPM_P1;HPM_P2
2023/02/27 00:00:55;;;;;;;10.10;2.47;;;0.10;99.90;;;;;;5070720;28;20021;-56
2023/02/27 00:03:21;;;;;;;6.83;2.07;;;0.10;99.90;;;;;;5071043;28;20028;-59
2023/02/27 00:05:47;;;;;;;8.67;2.30;;;0.10;99.90;;;;;;5070824;28;20495;-55
2023/02/27 00:08:13;;;;;;;8.27;2.50;;;0.10;99.90;;;;;;5070629;28;20037;-56
2023/02/27 00:10:39;;;;;;;8.67;2.60;;;0.00;99.90;;;;;;5070955;28;20036;-57
2023/02/27 00:13:05;;;;;;;6.07;1.83;;;0.00;99.90;;;;;;5070810;28;20031;-56
2023/02/27 00:15:31;;;;;;;7.00;2.23;;;0.00;99.90;;;;;;5070322;28;20035;-57
2023/02/27 00:17:58;;;;;;;10.67;2.50;;;0.00;99.90;;;;;;5070667;28;20269;-57
2023/02/27 00:20:24;;;;;;;7.27;2.00;;;0.00;99.90;;;;;;5070734;28;20040;-56
2023/02/27 00:22:50;;;;;;;8.20;2.00;;;0.00;99.90;;;;;;5070874;28;20398;-56
2023/02/27 00:25:16;;;;;;;5.67;2.17;;;-0.10;99.90;;;;;;5070425;28;20025;-57
2023/02/27 00:27:43;;;;;;;8.00;2.00;;;-0.10;99.90;;;;;;5070397;28;20493;-58
2023/02/27 00:30:12;;;;;;;8.63;2.27;;;-0.20;99.90;;;;;;5052515;28;20093;-57
2023/02/27 00:32:39;;;;;;;6.47;2.00;;;-0.20;99.90;;;;;;5070672;28;20035;-57
2023/02/27 00:35:06;;;;;;;8.33;2.27;;;-0.30;99.90;;;;;;5052373;28;20040;-56
2023/02/27 00:37:33;;;;;;;8.73;2.33;;;-0.30;99.90;;;;;;5070194;28;20039;-58
2023/02/27 00:39:59;;;;;;;7.53;2.50;;;-0.40;99.90;;;;;;5070501;28;20103;-56
2023/02/27 00:42:29;;;;;;;8.80;1.90;;;-0.40;99.90;;;;;;5052287;28;20370;-57
2023/02/27 00:44:55;;;;;;;5.07;1.90;;;-0.40;99.90;;;;;;5070486;28;20166;-58
2023/02/27 00:47:21;;;;;;;8.93;2.20;;;-0.40;99.90;;;;;;5052217;28;20059;-58
2023/02/27 00:49:46;;;;;;;5.57;1.93;;;-0.40;99.90;;;;;;5070297;28;20345;-58
2023/02/27 00:52:12;;;;;;;5.80;1.80;;;-0.40;99.90;;;;;;5070476;28;20037;-58
2023/02/27 00:54:38;;;;;;;6.47;1.80;;;-0.40;99.90;;;;;;5070214;28;20135;-58
2023/02/27 00:57:03;;;;;;;4.73;2.03;;;-0.40;99.90;;;;;;5069999;28;20037;-57
2023/02/27 00:59:29;;;;;;;8.10;2.13;;;-0.40;99.90;;;;;;5052091;28;20060;-56
2023/02/27 01:01:55;;;;;;;5.37;1.83;;;-0.50;99.90;;;;;;5070502;28;20025;-58
2023/02/27 01:04:21;;;;;;;7.20;2.13;;;-0.50;99.90;;;;;;5052095;28;20530;-58
2023/02/27 01:06:46;;;;;;;5.93;1.80;;;-0.50;99.90;;;;;;5052037;28;20029;-56
2023/02/27 01:09:12;;;;;;;8.37;2.40;;;-0.50;99.90;;;;;;5070512;28;20342;-57
2023/02/27 01:11:38;;;;;;;5.80;1.60;;;-0.60;99.90;;;;;;5070098;28;20032;-58
2023/02/27 01:14:04;;;;;;;4.57;1.60;;;-0.60;99.90;;;;;;5072296;28;20021;-58
2023/02/27 01:16:30;;;;;;;6.97;2.20;;;-0.60;99.90;;;;;;5074071;28;20464;-56
2023/02/27 01:18:56;;;;;;;5.80;2.00;;;-0.60;99.90;;;;;;5056271;28;20796;-57
2023/02/27 01:21:22;;;;;;;7.87;2.00;;;-0.60;99.90;;;;;;5074107;28;20025;-56
2023/02/27 01:23:48;;;;;;;7.90;2.50;;;-0.60;99.90;;;;;;5074108;28;20055;-58
2023/02/27 01:26:18;;;;;;;6.57;2.13;;;-0.60;99.90;;;;;;5073768;28;20035;-58
2023/02/27 01:28:43;;;;;;;4.63;2.20;;;-0.60;99.90;;;;;;5073810;28;20040;-56
2023/02/27 01:31:11;;;;;;;6.93;2.10;;;-0.60;99.90;;;;;;5074099;28;20036;-55
2023/02/27 01:33:37;;;;;;;8.13;2.60;;;-0.60;99.90;;;;;;5073645;28;20404;-55
2023/02/27 01:36:03;;;;;;;9.30;2.50;;;-0.60;99.90;;;;;;5073627;28;20032;-55
2023/02/27 01:38:29;;;;;;;7.70;2.20;;;-0.60;99.90;;;;;;5055660;28;20051;-57
2023/02/27 01:40:56;;;;;;;7.07;2.40;;;-0.60;99.90;;;;;;5055588;28;20500;-57
2023/02/27 01:43:22;;;;;;;6.60;1.97;;;-0.70;99.90;;;;;;5073474;28;20032;-57
2023/02/27 01:45:51;;;;;;;5.18;2.03;;;-0.70;99.90;;;;;;5055664;28;20405;-56
2023/02/27 01:48:22;;;;;;;7.00;2.30;;;-0.70;99.90;;;;;;5073302;28;20033;-56
2023/02/27 01:50:52;;;;;;;7.30;2.30;;;-0.70;99.90;;;;;;5055469;28;20031;-58
2023/02/27 01:53:19;;;;;;;7.10;2.37;;;-0.70;99.90;;;;;;5073258;28;20040;-58
2023/02/27 01:55:46;;;;;;;7.37;2.27;;;-0.70;99.90;;;;;;5055253;28;20039;-57
2023/02/27 01:58:14;;;;;;;6.60;2.00;;;-0.70;99.90;;;;;;5073132;28;20062;-56
2023/02/27 02:00:40;;;;;;;5.67;1.90;;;-0.70;99.90;;;;;;5055636;28;20560;-58
2023/02/27 02:03:21;;;;;;;6.73;2.10;;;-0.70;99.90;;;;;;5073583;28;20021;-58
2023/02/27 02:05:49;;;;;;;7.77;2.33;;;-0.70;99.90;;;;;;5055362;28;20025;-57
2023/02/27 02:08:18;;;;;;;8.97;2.40;;;-0.80;99.90;;;;;;5055042;28;20431;-57
2023/02/27 02:10:47;;;;;;;8.27;2.47;;;-0.80;99.90;;;;;;5055267;28;20067;-57
2023/02/27 02:13:15;;;;;;;6.40;2.17;;;-0.80;99.90;;;;;;5055298;28;20036;-57
2023/02/27 02:15:49;;;;;;;4.87;2.27;;;-0.80;99.90;;;;;;5072790;28;20808;-57
2023/02/27 02:18:28;;;;;;;7.67;2.43;;;-0.80;99.90;;;;;;5072882;28;20385;-56
2023/02/27 02:21:34;;;;;;;7.50;2.27;;;-0.80;99.90;;;;;;5073107;28;20407;-58
2023/02/27 02:24:38;;;;;;;7.00;2.30;;;-0.80;99.90;;;;;;5072096;28;20484;-56
2023/02/27 02:27:43;;;;;;;9.60;2.63;;;-0.80;99.90;;;;;;5054604;28;20978;-57
2023/02/27 02:30:21;;;;;;;8.67;2.43;;;-0.90;99.90;;;;;;5073006;28;20426;-57
2023/02/27 02:33:03;;;;;;;5.27;2.50;;;-0.80;99.90;;;;;;5072812;28;20430;-56
2023/02/27 02:36:06;;;;;;;8.23;2.60;;;-0.90;99.90;;;;;;5054276;28;20497;-58
2023/02/27 02:38:44;;;;;;;8.83;2.70;;;-0.90;99.90;;;;;;5072399;28;21020;-56
2023/02/27 02:41:27;;;;;;;7.60;2.50;;;-0.90;99.90;;;;;;5054918;28;20472;-56
2023/02/27 02:44:09;;;;;;;6.00;2.27;;;-0.90;99.90;;;;;;5072793;28;20439;-55
2023/02/27 02:47:01;;;;;;;7.93;2.57;;;-0.90;99.90;;;;;;5072395;28;20464;-56
2023/02/27 02:49:39;;;;;;;7.27;2.40;;;-1.00;99.90;;;;;;5023927;28;20446;-56
2023/02/27 02:52:13;;;;;;;5.93;2.33;;;-1.00;99.90;;;;;;5054573;28;20035;-57
2023/02/27 02:54:39;;;;;;;6.53;2.50;;;-1.00;99.90;;;;;;5072111;28;20509;-57
2023/02/27 02:57:18;;;;;;;6.77;2.20;;;-1.00;99.90;;;;;;5054157;28;20822;-59
2023/02/27 03:00:21;;;;;;;7.27;2.70;;;-1.00;99.90;;;;;;5054388;28;20542;-58
2023/02/27 03:02:53;;;;;;;9.13;2.80;;;-1.00;99.90;;;;;;5052649;28;20942;-57
2023/02/27 03:05:36;;;;;;;8.30;2.57;;;-1.10;99.90;;;;;;5054035;28;21029;-57
2023/02/27 03:08:07;;;;;;;8.07;2.80;;;-1.10;99.90;;;;;;5071995;28;20435;-58
2023/02/27 03:10:41;;;;;;;8.30;2.20;;;-1.00;99.90;;;;;;5071974;28;20548;-57
2023/02/27 03:13:17;;;;;;;8.83;2.87;;;-1.10;99.90;;;;;;5072105;28;20427;-56
2023/02/27 03:15:49;;;;;;;8.83;3.10;;;-1.10;99.90;;;;;;5071995;28;20455;-58
2023/02/27 03:18:24;;;;;;;12.03;2.90;;;-1.10;99.90;;;;;;5071778;28;20426;-58
2023/02/27 03:21:13;;;;;;;10.40;3.00;;;-1.10;99.90;;;;;;5071747;28;20522;-55
2023/02/27 03:23:46;;;;;;;7.27;2.43;;;-1.00;99.90;;;;;;5053599;28;20469;-57
2023/02/27 03:26:15;;;;;;;5.73;2.50;;;-1.10;99.90;;;;;;5071779;28;20484;-56
2023/02/27 03:28:59;;;;;;;9.90;2.73;;;-1.10;99.90;;;;;;5053672;28;20439;-58
2023/02/27 03:31:42;;;;;;;8.00;2.83;;;-1.10;99.90;;;;;;5053750;28;20821;-57
2023/02/27 03:34:19;;;;;;;7.60;2.53;;;-1.00;99.90;;;;;;5071513;28;20527;-57
2023/02/27 03:37:08;;;;;;;9.87;2.93;;;-1.00;99.90;;;;;;5070687;28;20454;-56
2023/02/27 03:39:48;;;;;;;5.80;2.42;;;-1.00;99.90;;;;;;5071446;28;20427;-56
2023/02/27 03:42:23;;;;;;;7.73;2.63;;;-1.10;99.90;;;;;;5053584;28;20119;-57
2023/02/27 03:45:17;;;;;;;9.07;3.10;;;-1.00;99.90;;;;;;5071320;28;20465;-57
2023/02/27 03:47:43;;;;;;;7.17;2.60;;;-1.10;99.90;;;;;;5053201;28;20454;-57
2023/02/27 03:50:10;;;;;;;11.30;3.17;;;-1.10;99.90;;;;;;5053347;28;20447;-57
2023/02/27 03:52:36;;;;;;;8.93;2.90;;;-1.10;99.90;;;;;;5053352;28;20427;-57
2023/02/27 03:55:09;;;;;;;9.93;3.30;;;-1.10;99.90;;;;;;5052957;28;20485;-56
2023/02/27 03:57:36;;;;;;;8.33;3.20;;;-1.10;99.90;;;;;;5053054;28;20106;-56
2023/02/27 04:00:04;;;;;;;8.53;2.90;;;-1.10;99.90;;;;;;5053172;28;20978;-56
2023/02/27 04:02:42;;;;;;;7.63;3.00;;;-1.20;99.90;;;;;;5071204;28;20922;-58
2023/02/27 04:05:08;;;;;;;7.45;2.90;;;-1.20;99.90;;;;;;5053295;28;20504;-57
2023/02/27 04:08:01;;;;;;;8.03;3.00;;;-1.20;99.90;;;;;;5052835;28;20034;-57
2023/02/27 04:10:36;;;;;;;8.47;3.10;;;-1.20;99.90;;;;;;5071183;28;20523;-57
2023/02/27 04:13:17;;;;;;;7.27;3.10;;;-1.20;99.90;;;;;;5071000;28;20984;-57
2023/02/27 04:15:50;;;;;;;8.13;3.00;;;-1.20;99.90;;;;;;5052783;28;20474;-56
2023/02/27 04:18:42;;;;;;;10.03;3.30;;;-1.20;99.90;;;;;;5070870;28;20488;-58
2023/02/27 04:21:26;;;;;;;7.30;2.93;;;-1.20;99.90;;;;;;5071045;28;20434;-55
2023/02/27 04:24:01;;;;;;;7.93;3.27;;;-1.20;99.90;;;;;;5070870;28;20985;-55
2023/02/27 04:26:49;;;;;;;9.33;3.10;;;-1.20;99.90;;;;;;5070943;28;20967;-56
2023/02/27 04:29:18;;;;;;;5.70;2.97;;;-1.20;99.90;;;;;;5071061;28;20423;-56
2023/02/27 04:32:00;;;;;;;10.30;3.50;;;-1.20;99.90;;;;;;5070893;28;20041;-56
2023/02/27 04:34:38;;;;;;;7.97;3.07;;;-1.20;99.90;;;;;;5070825;28;20036;-57
2023/02/27 04:37:11;;;;;;;10.07;3.23;;;-1.20;99.90;;;;;;5084255;22;20499;-53
2023/02/27 04:39:44;;;;;;;9.13;3.73;;;-1.30;99.90;;;;;;5070829;28;20522;-52
2023/02/27 04:42:17;;;;;;;11.80;3.80;;;-1.30;99.90;;;;;;5070894;28;20441;-52
2023/02/27 04:44:46;;;;;;;9.33;3.23;;;-1.30;99.90;;;;;;5070742;28;20426;-55
2023/02/27 04:47:14;;;;;;;8.83;3.40;;;-1.30;99.90;;;;;;5070327;28;20815;-52
2023/02/27 04:49:40;;;;;;;7.10;3.40;;;-1.30;99.90;;;;;;5070373;28;20441;-56
2023/02/27 04:52:17;;;;;;;8.73;3.50;;;-1.30;99.90;;;;;;5070752;28;20533;-53
2023/02/27 04:54:50;;;;;;;6.77;3.40;;;-1.30;99.90;;;;;;5070412;28;20449;-55
2023/02/27 04:57:23;;;;;;;6.33;3.23;;;-1.30;99.90;;;;;;5070771;28;20438;-54
2023/02/27 04:59:54;;;;;;;11.50;3.17;;;-1.30;99.90;;;;;;5070737;28;20427;-54
2023/02/27 05:02:26;;;;;;;7.30;3.60;;;-1.20;99.90;;;;;;5070934;28;20435;-56
2023/02/27 05:04:57;;;;;;;10.23;4.00;;;-1.30;99.90;;;;;;5070478;28;20458;-55
2023/02/27 05:07:30;;;;;;;8.27;3.50;;;-1.30;99.90;;;;;;5052425;28;20506;-53
2023/02/27 05:10:04;;;;;;;9.13;3.53;;;-1.30;99.90;;;;;;5070679;28;20065;-54
2023/02/27 05:12:43;;;;;;;8.47;3.60;;;-1.30;99.90;;;;;;5070752;28;20435;-54
2023/02/27 05:15:18;;;;;;;;;;;-1.30;99.90;;;;;;5070997;28;20458;-57
2023/02/27 05:18:03;;;;;;;10.07;3.60;;;-1.30;99.90;;;;;;5052234;28;20380;-56
2023/02/27 05:20:50;;;;;;;6.90;3.00;;;-1.30;99.90;;;;;;5070581;28;20450;-53
2023/02/27 05:23:20;;;;;;;11.10;3.97;;;-1.40;99.90;;;;;;5070516;28;20434;-56
2023/02/27 05:25:57;;;;;;;9.43;3.73;;;-1.40;99.90;;;;;;5070246;28;20927;-54
2023/02/27 05:28:45;;;;;;;12.53;4.07;;;-1.40;99.90;;;;;;5070370;28;20477;-54
2023/02/27 05:31:23;;;;;;;9.23;3.83;;;-1.40;99.90;;;;;;5070629;28;20431;-55
2023/02/27 05:34:01;;;;;;;9.50;4.00;;;-1.40;99.90;;;;;;5070261;28;20963;-55
2023/02/27 05:37:01;;;;;;;10.37;3.80;;;-1.50;99.90;;;;;;5069846;28;20470;-56
2023/02/27 05:39:29;;;;;;;9.93;3.28;;;-1.50;99.90;;;;;;5057076;28;20593;-55
2023/02/27 05:42:09;;;;;;;10.47;4.10;;;-1.50;99.90;;;;;;5070342;28;20025;-53
2023/02/27 05:44:41;;;;;;;8.23;4.10;;;-1.50;99.90;;;;;;5070091;28;20760;-53
2023/02/27 05:47:15;;;;;;;10.37;4.17;;;-1.50;99.90;;;;;;5070029;28;20955;-54
2023/02/27 05:49:56;;;;;;;9.10;4.20;;;-1.50;99.90;;;;;;5070266;28;20846;-54
2023/02/27 05:52:24;;;;;;;12.17;3.80;;;-1.50;99.90;;;;;;5070296;28;20426;-56
2023/02/27 05:55:05;;;;;;;9.70;3.83;;;-1.50;99.90;;;;;;5069850;28;20420;-55
2023/02/27 05:57:44;;;;;;;10.80;3.90;;;-1.60;99.90;;;;;;5069983;28;20434;-57
2023/02/27 06:00:15;;;;;;;9.57;3.85;;;-1.50;99.90;;;;;;5072657;28;20419;-53
2023/02/27 06:02:43;;;;;;;7.93;4.10;;;-1.60;99.90;;;;;;5073873;28;20035;-54
2023/02/27 06:05:13;;;;;;;11.35;4.20;;;-1.60;99.90;;;;;;5055602;28;20451;-55
2023/02/27 06:07:40;;;;;;;11.47;4.03;;;-1.60;99.90;;;;;;5073192;28;20048;-53
2023/02/27 06:10:06;;;;;;;13.23;4.70;;;-1.60;99.90;;;;;;5073537;28;20434;-51
2023/02/27 06:12:32;;;;;;;11.60;4.10;;;-1.60;99.90;;;;;;5073536;28;20490;-56
2023/02/27 06:14:57;;;;;;;11.33;3.90;;;-1.60;99.90;;;;;;5073253;28;20497;-55
2023/02/27 06:17:23;;;;;;;8.40;3.73;;;-1.70;99.90;;;;;;5073374;28;20100;-54
2023/02/27 06:19:49;;;;;;;9.87;4.73;;;-1.60;99.90;;;;;;5073423;28;20467;-53
2023/02/27 06:22:14;;;;;;;10.17;4.30;;;-1.70;99.90;;;;;;5073366;28;20028;-53
2023/02/27 06:24:40;;;;;;;12.17;4.73;;;-1.60;99.90;;;;;;5073254;28;20029;-55
2023/02/27 06:27:06;;;;;;;10.10;3.77;;;-1.60;99.90;;;;;;5073027;28;20036;-51
2023/02/27 06:29:31;;;;;;;9.87;4.60;;;-1.60;99.90;;;;;;5073410;28;20024;-54
2023/02/27 06:31:57;;;;;;;12.87;4.43;;;-1.60;99.90;;;;;;5073114;28;20386;-56
2023/02/27 06:34:23;;;;;;;10.67;5.03;;;-1.60;99.90;;;;;;5072807;28;20036;-55
2023/02/27 06:36:49;;;;;;;12.87;4.43;;;-1.60;99.90;;;;;;5072572;28;20028;-53
2023/02/27 06:39:15;;;;;;;10.13;4.70;;;-1.60;99.90;;;;;;5073083;28;20581;-55
2023/02/27 06:41:41;;;;;;;11.30;4.70;;;-1.60;99.90;;;;;;5072907;28;20047;-54
2023/02/27 06:44:07;;;;;;;9.67;4.60;;;-1.60;99.90;;;;;;5072699;28;20431;-54
2023/02/27 06:46:32;;;;;;;13.20;4.53;;;-1.50;99.90;;;;;;5072711;28;20280;-56
2023/02/27 06:48:58;;;;;;;9.87;4.30;;;-1.50;99.90;;;;;;5072735;28;20063;-55
2023/02/27 06:51:24;;;;;;;14.63;4.43;;;-1.50;99.90;;;;;;5072636;28;20150;-55
2023/02/27 06:53:49;;;;;;;12.70;4.57;;;-1.50;99.90;;;;;;5072750;28;20032;-55
2023/02/27 06:56:15;;;;;;;11.97;4.43;;;-1.50;99.90;;;;;;5072582;28;20554;-55
2023/02/27 06:58:42;;;;;;;11.93;4.80;;;-1.40;99.90;;;;;;5072478;28;20028;-56
2023/02/27 07:01:08;;;;;;;11.87;5.07;;;-1.40;99.90;;;;;;5072620;28;20078;-55
2023/02/27 07:03:34;;;;;;;13.97;4.67;;;-1.50;99.90;;;;;;5072280;28;20849;-53
2023/02/27 07:06:01;;;;;;;10.70;5.30;;;-1.40;99.90;;;;;;5072132;28;20458;-55
2023/02/27 07:08:27;;;;;;;9.17;4.73;;;-1.40;99.90;;;;;;5072524;28;20032;-55
2023/02/27 07:10:52;;;;;;;14.27;5.30;;;-1.30;99.90;;;;;;5071439;28;20469;-56
2023/02/27 07:13:18;;;;;;;12.47;5.13;;;-1.30;99.90;;;;;;5072582;28;20043;-53
2023/02/27 07:15:44;;;;;;;9.67;4.87;;;-1.20;99.90;;;;;;5072117;28;20507;-56
2023/02/27 07:18:10;;;;;;;10.27;5.20;;;-1.20;99.90;;;;;;5071971;28;20071;-54
2023/02/27 07:20:36;;;;;;;11.80;4.90;;;-1.10;99.90;;;;;;5072137;28;20028;-54
2023/02/27 07:23:01;;;;;;;12.57;5.20;;;-1.00;99.90;;;;;;5072448;28;20032;-53
2023/02/27 07:25:27;;;;;;;13.80;5.23;;;-1.00;99.90;;;;;;5071931;28;20040;-55
2023/02/27 07:27:53;;;;;;;10.43;4.77;;;-1.00;99.90;;;;;;5071892;28;20062;-54
2023/02/27 07:30:19;;;;;;;12.93;5.10;;;-0.90;99.90;;;;;;5071952;28;20477;-55
2023/02/27 07:32:45;;;;;;;9.20;4.40;;;-0.90;99.90;;;;;;5054128;28;20055;-57
2023/02/27 07:35:11;;;;;;;10.73;4.70;;;-0.80;99.90;;;;;;5071427;28;20028;-52
2023/02/27 07:37:37;;;;;;;18.37;4.90;;;-0.80;99.90;;;;;;5071419;28;20435;-54
2023/02/27 07:40:04;;;;;;;13.90;5.43;;;-0.70;99.90;;;;;;5071726;28;20028;-52
2023/02/27 07:42:30;;;;;;;10.37;4.10;;;-0.60;99.90;;;;;;5071709;28;20075;-54
2023/02/27 07:44:55;;;;;;;9.93;4.17;;;-0.40;99.90;;;;;;5071417;28;20032;-54
2023/02/27 07:47:21;;;;;;;13.27;4.70;;;-0.10;99.90;;;;;;5071111;28;20082;-53
2023/02/27 07:49:47;;;;;;;9.80;3.97;;;0.00;99.90;;;;;;5071303;28;20458;-54
2023/02/27 07:52:12;;;;;;;15.17;4.27;;;0.20;99.90;;;;;;5071235;28;20060;-54
2023/02/27 07:54:38;;;;;;;11.37;4.03;;;0.50;99.90;;;;;;5071251;28;20024;-53
2023/02/27 07:57:04;;;;;;;9.17;3.57;;;0.80;99.90;;;;;;5071118;28;20024;-54
2023/02/27 07:59:30;;;;;;;9.90;4.20;;;0.90;99.90;;;;;;5071321;28;20024;-55
2023/02/27 08:01:56;;;;;;;10.03;4.13;;;0.80;99.90;;;;;;5071238;28;20032;-55
2023/02/27 08:04:22;;;;;;;9.53;4.17;;;0.80;99.90;;;;;;5070893;28;20051;-55
2023/02/27 08:06:47;;;;;;;9.67;4.00;;;0.70;99.90;;;;;;5070776;28;20162;-55
2023/02/27 08:09:13;;;;;;;11.93;3.93;;;0.70;99.90;;;;;;5070978;28;20025;-55
2023/02/27 08:11:39;;;;;;;8.43;4.47;;;0.70;99.90;;;;;;5071076;28;20432;-54
2023/02/27 08:14:05;;;;;;;13.70;4.43;;;0.70;99.90;;;;;;5070822;28;20476;-55
2023/02/27 08:16:31;;;;;;;10.63;4.33;;;0.80;99.90;;;;;;5070580;28;20036;-56
2023/02/27 08:18:57;;;;;;;9.63;3.97;;;0.90;99.90;;;;;;5070752;28;20435;-54
2023/02/27 08:21:23;;;;;;;10.13;4.30;;;1.00;99.90;;;;;;5070927;28;20024;-54
2023/02/27 08:23:49;;;;;;;14.07;4.73;;;1.20;99.90;;;;;;5070758;28;20020;-54
2023/02/27 08:26:15;;;;;;;13.57;4.37;;;1.30;99.90;;;;;;5070856;28;20393;-53
2023/02/27 08:28:41;;;;;;;9.90;4.03;;;1.50;99.90;;;;;;5070688;28;20024;-55
2023/02/27 08:31:06;;;;;;;10.97;3.97;;;1.70;99.90;;;;;;5070794;28;20063;-54
2023/02/27 08:33:32;;;;;;;10.63;3.87;;;2.00;99.90;;;;;;5070593;28;20041;-56
2023/02/27 08:35:58;;;;;;;9.90;4.00;;;2.30;99.90;;;;;;5070564;28;20485;-54
2023/02/27 08:38:24;;;;;;;9.77;3.40;;;2.60;99.90;;;;;;5070918;28;20025;-55
2023/02/27 08:40:54;;;;;;;9.97;4.17;;;2.80;99.90;;;;;;5070757;28;20029;-54
2023/02/27 08:43:20;;;;;;;;;;;2.80;99.90;;;;;;5071184;28;20036;-56
2023/02/27 08:45:47;;;;;;;10.10;3.93;;;2.70;99.90;;;;;;5071152;28;20394;-54
2023/02/27 08:48:14;;;;;;;9.80;3.33;;;2.80;99.90;;;;;;5070879;28;20032;-55
2023/02/27 08:50:41;;;;;;;11.27;4.13;;;2.90;99.90;;;;;;5070538;28;20511;-54
2023/02/27 08:53:07;;;;;;;7.90;3.40;;;2.80;99.90;;;;;;5070650;28;20032;-57
2023/02/27 08:55:34;;;;;;;8.13;3.50;;;2.80;99.90;;;;;;5070217;28;20032;-54
2023/02/27 08:57:59;;;;;;;11.93;4.33;;;2.90;99.90;;;;;;5070217;28;20029;-55
2023/02/27 09:00:25;;;;;;;9.53;3.60;;;3.00;99.90;;;;;;5070450;28;20393;-55
2023/02/27 09:02:52;;;;;;;9.57;3.50;;;3.20;99.90;;;;;;5070483;28;20420;-54
2023/02/27 09:05:18;;;;;;;8.90;4.07;;;3.30;99.90;;;;;;5070192;28;20043;-55
2023/02/27 09:07:44;;;;;;;7.90;3.30;;;3.50;99.90;;;;;;5070239;28;20037;-55
2023/02/27 09:10:11;;;;;;;11.43;3.73;;;3.50;99.90;;;;;;5052372;28;20503;-55
2023/02/27 09:12:37;;;;;;;11.07;3.57;;;3.30;99.90;;;;;;5070839;28;20591;-51
2023/02/27 09:15:04;;;;;;;9.13;3.30;;;3.30;99.90;;;;;;5069991;28;20392;-57
2023/02/27 09:17:30;;;;;;;9.10;3.40;;;3.50;99.90;;;;;;5070279;28;20388;-53
2023/02/27 09:19:56;;;;;;;8.63;2.90;;;3.80;99.90;;;;;;5070358;28;20029;-55
2023/02/27 09:22:23;;;;;;;10.47;3.27;;;3.90;99.90;;;;;;5070302;28;20489;-55
2023/02/27 09:24:49;;;;;;;14.13;3.10;;;4.00;99.90;;;;;;5070079;28;20040;-55
2023/02/27 09:27:14;;;;;;;8.20;3.07;;;4.20;99.90;;;;;;5069931;28;20032;-52
2023/02/27 09:29:40;;;;;;;7.20;2.63;;;4.50;99.90;;;;;;5069964;28;20086;-55
2023/02/27 09:32:06;;;;;;;5.73;2.50;;;4.90;99.90;;;;;;5070332;28;20024;-52
2023/02/27 09:34:32;;;;;;;7.83;2.63;;;5.50;99.90;;;;;;5071437;28;20028;-50
2023/02/27 09:36:58;;;;;;;6.13;2.83;;;5.50;99.90;;;;;;5073628;28;20056;-51
2023/02/27 09:39:24;;;;;;;7.20;2.70;;;5.70;99.90;;;;;;5073749;28;20029;-52
2023/02/27 09:41:58;;;;;;;8.20;2.30;;;5.70;99.90;;;;;;5073896;28;20047;-53
2023/02/27 09:44:43;;;;;;;6.53;2.37;;;6.00;99.90;;;;;;5073719;28;20104;-52
2023/02/27 09:47:17;;;;;;;8.00;2.40;;;6.40;99.90;;;;;;5073593;28;20031;-51
2023/02/27 09:49:57;;;;;;;8.53;2.93;;;6.40;99.90;;;;;;5073642;28;20057;-53
2023/02/27 09:52:22;;;;;;;;;;;6.70;99.80;;;;;;5074210;28;20032;-54
2023/02/27 09:54:48;;;;;;;5.20;1.60;;;7.40;98.30;;;;;;5073406;28;20288;-54
2023/02/27 09:57:23;;;;;;;6.57;1.93;;;7.90;96.70;;;;;;5073338;28;20440;-53
2023/02/27 09:59:59;;;;;;;6.40;2.23;;;8.00;97.40;;;;;;5073576;28;20408;-54
2023/02/27 10:02:52;;;;;;;5.73;1.87;;;9.00;94.70;;;;;;5074022;28;20509;-56
2023/02/27 10:05:22;;;;;;;4.93;1.73;;;9.30;93.40;;;;;;5073799;28;20036;-56
2023/02/27 10:07:59;;;;;;;6.70;1.98;;;9.90;92.70;;;;;;5073481;28;20054;-55
2023/02/27 10:10:39;;;;;;;5.47;1.90;;;9.90;91.60;;;;;;5055575;28;20054;-54
2023/02/27 10:13:28;;;;;;;7.80;2.00;;;10.00;91.10;;;;;;5073338;28;20033;-57
2023/02/27 10:15:54;;;;;;;4.05;1.75;;;10.40;91.70;;;;;;5073361;28;20094;-57
2023/02/27 10:18:25;;;;;;;5.03;1.60;;;11.10;88.60;;;;;;5073049;28;20050;-57
2023/02/27 10:20:59;;;;;;;8.90;1.60;;;11.20;85.70;;;;;;5073214;28;20537;-56
2023/02/27 10:23:52;;;;;;;4.13;1.50;;;10.70;84.30;;;;;;5073033;28;20446;-57
2023/02/27 10:26:31;;;;;;;3.97;1.48;;;10.40;84.90;;;;;;5065044;28;20123;-56
2023/02/27 10:29:01;;;;;;;4.53;1.45;;;10.70;84.30;;;;;;5073047;28;20392;-56
2023/02/27 10:31:32;;;;;;;8.32;1.88;;;10.80;82.50;;;;;;5073172;28;20029;-56
2023/02/27 10:33:59;;;;;;;4.88;1.38;;;10.60;83.90;;;;;;5072938;28;20039;-56
2023/02/27 10:36:25;;;;;;;5.40;1.55;;;11.00;82.90;;;;;;5085919;22;20049;-58
2023/02/27 10:38:59;;;;;;;4.50;1.40;;;11.50;79.60;;;;;;5072947;28;20082;-58
2023/02/27 10:41:26;;;;;;;6.22;1.40;;;11.30;79.70;;;;;;5073046;28;20028;-57
2023/02/27 10:43:57;;;;;;;5.65;1.40;;;11.10;80.60;;;;;;5072631;28;20028;-58
2023/02/27 10:46:31;;;;;;;3.97;1.30;;;11.10;78.90;;;;;;5071290;28;20131;-58
2023/02/27 10:49:04;;;;;;;5.03;1.58;;;11.00;79.20;;;;;;5072775;28;20145;-57
2023/02/27 10:51:35;;;;;;;4.22;1.50;;;10.30;78.50;;;;;;5072925;28;20036;-58
2023/02/27 10:54:22;;;;;;;4.93;1.50;;;9.20;81.30;;;;;;5072707;28;20461;-58
2023/02/27 10:56:57;;;;;;;4.03;1.60;;;8.40;85.70;;;;;;5072589;28;20082;-58
2023/02/27 10:59:27;;;;;;;5.60;1.80;;;7.90;87.80;;;;;;5072557;28;20110;-58
2023/02/27 11:01:56;;;;;;;6.23;1.67;;;7.60;90.00;;;;;;5072851;28;20384;-57
2023/02/27 11:04:30;;;;;;;7.07;1.57;;;7.60;90.40;;;;;;5072396;28;20024;-57
2023/02/27 11:06:57;;;;;;;3.93;1.87;;;7.30;90.20;;;;;;5072378;28;20067;-57
2023/02/27 11:09:33;;;;;;;6.57;1.70;;;7.20;90.50;;;;;;5072268;28;20086;-58
2023/02/27 11:12:20;;;;;;;4.90;1.50;;;6.90;90.80;;;;;;5072381;28;20100;-57
2023/02/27 11:14:55;;;;;;;3.40;1.40;;;6.70;91.70;;;;;;5071991;28;20112;-58
2023/02/27 11:17:24;;;;;;;7.43;1.40;;;6.60;92.40;;;;;;5071896;28;20071;-58
2023/02/27 11:19:50;;;;;;;4.90;1.60;;;6.50;92.20;;;;;;5072087;28;20037;-57
2023/02/27 11:22:20;;;;;;;8.33;1.60;;;6.60;91.90;;;;;;5071934;28;20020;-58
2023/02/27 11:24:46;;;;;;;4.97;1.50;;;6.50;91.70;;;;;;5071675;28;20040;-57
2023/02/27 11:27:25;;;;;;;4.07;1.20;;;6.70;91.40;;;;;;5071680;28;20029;-57
2023/02/27 11:29:57;;;;;;;5.95;1.25;;;6.80;92.00;;;;;;5071940;28;20031;-56
2023/02/27 11:32:24;;;;;;;5.90;1.40;;;7.10;92.20;;;;;;5071821;28;20029;-58
2023/02/27 11:34:51;;;;;;;4.57;1.20;;;7.80;91.00;;;;;;5071536;28;20041;-57
2023/02/27 11:37:20;;;;;;;3.33;1.40;;;8.20;90.00;;;;;;5071428;28;20040;-58
2023/02/27 11:40:01;;;;;;;6.28;1.85;;;8.20;90.10;;;;;;5071680;28;20104;-57
2023/02/27 11:42:33;;;;;;;5.90;1.63;;;8.20;90.60;;;;;;5071577;28;20414;-57
2023/02/27 11:45:05;;;;;;;4.20;1.30;;;8.40;88.50;;;;;;5071209;28;20120;-58
2023/02/27 11:47:37;;;;;;;5.70;1.70;;;8.80;88.10;;;;;;5071434;28;20032;-57
2023/02/27 11:50:28;;;;;;;5.40;1.67;;;9.30;88.20;;;;;;5071645;28;20032;-58
2023/02/27 11:53:05;;;;;;;5.00;1.30;;;10.00;85.00;;;;;;5053585;28;20071;-57
2023/02/27 11:55:31;;;;;;;6.73;1.73;;;10.50;83.70;;;;;;5071026;28;20028;-58
2023/02/27 11:58:03;;;;;;;4.17;1.50;;;10.40;78.70;;;;;;5070878;28;20035;-58
2023/02/27 12:00:35;;;;;;;3.70;1.40;;;10.40;81.60;;;;;;5071235;28;20021;-58
2023/02/27 12:03:12;;;;;;;3.97;1.20;;;10.30;82.60;;;;;;5071299;28;20028;-58
2023/02/27 12:05:54;;;;;;;6.90;1.48;;;10.80;77.00;;;;;;5071016;28;20067;-57
2023/02/27 12:08:35;;;;;;;4.75;1.40;;;11.20;77.80;;;;;;5070797;28;20477;-58
2023/02/27 12:11:06;;;;;;;3.53;1.40;;;11.80;75.40;;;;;;5070986;28;20032;-57
2023/02/27 12:13:37;;;;;;;6.90;1.40;;;12.30;72.70;;;;;;5070795;28;20453;-56
2023/02/27 12:16:16;;;;;;;4.78;1.38;;;12.60;70.60;;;;;;5070727;28;20612;-57
2023/02/27 12:18:49;;;;;;;8.38;1.50;;;12.40;71.60;;;;;;5070743;28;20523;-57
2023/02/27 12:21:42;;;;;;;4.70;1.40;;;12.00;73.40;;;;;;5070762;28;20497;-57
2023/02/27 12:24:12;;;;;;;4.35;1.45;;;12.00;73.30;;;;;;5070617;28;20086;-57
2023/02/27 12:26:47;;;;;;;11.55;1.90;;;12.20;71.10;;;;;;5070320;28;20484;-58
2023/02/27 12:29:33;;;;;;;4.47;1.70;;;11.20;73.10;;;;;;5070700;28;20039;-57
2023/02/27 12:32:26;;;;;;;5.03;1.70;;;10.40;78.00;;;;;;5070589;28;20119;-57
2023/02/27 12:34:58;;;;;;;3.22;1.58;;;10.90;77.70;;;;;;5070141;28;20036;-57
2023/02/27 12:37:26;;;;;;;8.02;1.77;;;11.10;75.20;;;;;;5070128;28;20033;-57
2023/02/27 12:39:54;;;;;;;4.85;1.80;;;10.80;77.20;;;;;;5070630;28;20070;-57
2023/02/27 12:42:29;;;;;;;6.30;1.65;;;10.50;76.30;;;;;;5070460;28;20028;-57
2023/02/27 12:45:19;;;;;;;5.82;1.30;;;10.60;75.20;;;;;;5070271;28;20028;-57
2023/02/27 12:48:23;;;;;;;3.72;1.60;;;10.90;76.40;;;;;;5070053;28;20122;-57
2023/02/27 12:51:19;;;;;;;6.68;1.50;;;11.20;73.60;;;;;;5059388;28;20330;-58
2023/02/27 12:54:22;;;;;;;7.13;1.70;;;11.50;74.20;;;;;;5070117;28;20039;-57
2023/02/27 12:57:10;;;;;;;6.22;1.50;;;12.10;71.80;;;;;;5070070;28;20040;-57
2023/02/27 12:59:51;;;;;;;5.43;1.63;;;12.10;70.60;;;;;;5070211;28;20473;-58
2023/02/27 13:02:43;;;;;;;5.75;1.90;;;11.90;71.60;;;;;;5070403;28;20037;-58
2023/02/27 13:05:37;;;;;;;6.28;2.05;;;11.20;73.70;;;;;;5070395;28;20161;-57
2023/02/27 13:08:03;;;;;;;4.85;1.83;;;10.40;74.30;;;;;;5069925;28;20036;-58
2023/02/27 13:10:47;;;;;;;4.88;1.67;;;10.00;75.30;;;;;;5073205;28;20051;-57
2023/02/27 13:13:42;;;;;;;5.85;1.52;;;10.20;74.10;;;;;;5074455;28;20043;-57